sensor_id;sensor_type;location;lat;lon;timestamp;pressure;altitude;pressure_sealevel;temperature
18161;BMP280;9205;52.032;4.314;2023-05-18T00:02:09;102888.91;;;10.68
18161;BMP280;9205;52.032;4.314;2023-05-18T00:04:41;102893.09;;;10.63
18161;BMP280;9205;52.032;4.314;2023-05-18T00:07:09;102880.34;;;10.60
18161;BMP280;9205;52.032;4.314;2023-05-18T00:09:36;102886.31;;;10.62
18161;BMP280;9205;52.032;4.314;2023-05-18T00:12:05;102885.41;;;10.60
18161;BMP280;9205;52.032;4.314;2023-05-18T00:14:34;102887.13;;;10.61
18161;BMP280;9205;52.032;4.314;2023-05-18T00:17:03;102891.34;;;10.59
18161;BMP280;9205;52.032;4.314;2023-05-18T00:19:30;102882.81;;;10.56
18161;BMP280;9205;52.032;4.314;2023-05-18T00:21:58;102887.81;;;10.44
18161;BMP280;9205;52.032;4.314;2023-05-18T00:24:27;102886.94;;;10.43
18161;BMP280;9205;52.032;4.314;2023-05-18T00:26:54;102887.03;;;10.52
18161;BMP280;9205;52.032;4.314;2023-05-18T00:29:21;102888.75;;;10.56
18161;BMP280;9205;52.032;4.314;2023-05-18T00:31:48;102893.78;;;10.50
18161;BMP280;9205;52.032;4.314;2023-05-18T00:34:17;102885.28;;;10.47
18161;BMP280;9205;52.032;4.314;2023-05-18T00:36:44;102886.94;;;10.43
18161;BMP280;9205;52.032;4.314;2023-05-18T00:39:11;102885.25;;;10.45
18161;BMP280;9205;52.032;4.314;2023-05-18T00:41:38;102888.69;;;10.47
18161;BMP280;9205;52.032;4.314;2023-05-18T00:44:06;102890.41;;;10.50
18161;BMP280;9205;52.032;4.314;2023-05-18T00:46:33;102881.03;;;10.46
18161;BMP280;9205;52.032;4.314;2023-05-18T00:49:01;102883.56;;;10.44
18161;BMP280;9205;52.032;4.314;2023-05-18T00:51:32;102882.69;;;10.42
18161;BMP280;9205;52.032;4.314;2023-05-18T00:54:01;102880.97;;;10.40
18161;BMP280;9205;52.032;4.314;2023-05-18T00:56:29;102882.56;;;10.33
18161;BMP280;9205;52.032;4.314;2023-05-18T00:59:01;102878.38;;;10.35
18161;BMP280;9205;52.032;4.314;2023-05-18T01:01:31;102887.75;;;10.39
18161;BMP280;9205;52.032;4.314;2023-05-18T01:04:02;102883.50;;;10.41
18161;BMP280;9205;52.032;4.314;2023-05-18T01:06:32;102895.34;;;10.38
18161;BMP280;9205;52.032;4.314;2023-05-18T01:09:02;102890.25;;;10.36
18161;BMP280;9205;52.032;4.314;2023-05-18T01:11:39;102891.94;;;10.37
18161;BMP280;9205;52.032;4.314;2023-05-18T01:14:15;102900.41;;;10.36
18161;BMP280;9205;52.032;4.314;2023-05-18T01:16:53;102895.34;;;10.38
18161;BMP280;9205;52.032;4.314;2023-05-18T01:19:56;102899.53;;;10.33
18161;BMP280;9205;52.032;4.314;2023-05-18T01:22:47;102894.44;;;10.34
18161;BMP280;9205;52.032;4.314;2023-05-18T01:25:30;102896.16;;;10.34
18161;BMP280;9205;52.032;4.314;2023-05-18T01:28:06;102896.09;;;10.28
18161;BMP280;9205;52.032;4.314;2023-05-18T01:30:39;102888.47;;;10.31
18161;BMP280;9205;52.032;4.314;2023-05-18T01:33:09;102885.97;;;10.35
18161;BMP280;9205;52.032;4.314;2023-05-18T01:35:38;102885.09;;;10.32
18161;BMP280;9205;52.032;4.314;2023-05-18T01:38:06;102893.59;;;10.32
18161;BMP280;9205;52.032;4.314;2023-05-18T01:40:42;102893.63;;;10.35
18161;BMP280;9205;52.032;4.314;2023-05-18T01:43:19;102892.78;;;10.35
18161;BMP280;9205;52.032;4.314;2023-05-18T01:45:53;102901.34;;;10.43
18161;BMP280;9205;52.032;4.314;2023-05-18T01:48:24;102895.31;;;10.36
18161;BMP280;9205;52.032;4.314;2023-05-18T01:50:56;102896.91;;;10.28
18161;BMP280;9205;52.032;4.314;2023-05-18T01:53:32;102895.97;;;10.17
18161;BMP280;9205;52.032;4.314;2023-05-18T01:56:06;102901.78;;;10.11
18161;BMP280;9205;52.032;4.314;2023-05-18T01:58:37;102895.84;;;10.10
18161;BMP280;9205;52.032;4.314;2023-05-18T02:01:06;102911.03;;;10.06
18161;BMP280;9205;52.032;4.314;2023-05-18T02:03:34;102898.28;;;10.01
18161;BMP280;9205;52.032;4.314;2023-05-18T02:06:01;102899.09;;;10.00
18161;BMP280;9205;52.032;4.314;2023-05-18T02:08:28;102899.81;;;9.92
18161;BMP280;9205;52.032;4.314;2023-05-18T02:10:56;102896.47;;;9.96
18161;BMP280;9205;52.032;4.314;2023-05-18T02:13:24;102897.38;;;9.99
18161;BMP280;9205;52.032;4.314;2023-05-18T02:15:55;102891.53;;;10.05
18161;BMP280;9205;52.032;4.314;2023-05-18T02:18:22;102894.22;;;10.15
18161;BMP280;9205;52.032;4.314;2023-05-18T02:20:57;102899.31;;;10.16
18161;BMP280;9205;52.032;4.314;2023-05-18T02:23:25;102894.13;;;10.09
18161;BMP280;9205;52.032;4.314;2023-05-18T02:25:53;102893.31;;;10.12
18161;BMP280;9205;52.032;4.314;2023-05-18T02:28:21;102894.13;;;10.08
18161;BMP280;9205;52.032;4.314;2023-05-18T02:30:48;102893.09;;;9.97
18161;BMP280;9205;52.032;4.314;2023-05-18T02:33:17;102895.50;;;9.88
18161;BMP280;9205;52.032;4.314;2023-05-18T02:35:51;102886.16;;;9.84
18161;BMP280;9205;52.032;4.314;2023-05-18T02:38:19;102885.25;;;9.80
18161;BMP280;9205;52.032;4.314;2023-05-18T02:40:47;102893.72;;;9.81
18161;BMP280;9205;52.032;4.314;2023-05-18T02:43:16;102891.22;;;9.84
18161;BMP280;9205;52.032;4.314;2023-05-18T02:45:44;102894.59;;;9.83
18161;BMP280;9205;52.032;4.314;2023-05-18T02:48:11;102886.91;;;9.78
18161;BMP280;9205;52.032;4.314;2023-05-18T02:50:39;102893.63;;;9.73
18161;BMP280;9205;52.032;4.314;2023-05-18T02:53:08;102886.84;;;9.72
18161;BMP280;9205;52.032;4.314;2023-05-18T02:55:36;102889.47;;;9.78
18161;BMP280;9205;52.032;4.314;2023-05-18T02:58:10;102885.19;;;9.74
18161;BMP280;9205;52.032;4.314;2023-05-18T03:00:54;102883.41;;;9.70
18161;BMP280;9205;52.032;4.314;2023-05-18T03:03:23;102890.16;;;9.67
18161;BMP280;9205;52.032;4.314;2023-05-18T03:05:52;102886.78;;;9.69
18161;BMP280;9205;52.032;4.314;2023-05-18T03:08:20;102891.88;;;9.69
18161;BMP280;9205;52.032;4.314;2023-05-18T03:10:47;102888.44;;;9.66
18161;BMP280;9205;52.032;4.314;2023-05-18T03:13:15;102881.69;;;9.66
18161;BMP280;9205;52.032;4.314;2023-05-18T03:15:42;102885.19;;;9.76
18161;BMP280;9205;52.032;4.314;2023-05-18T03:18:12;102884.44;;;9.83
18161;BMP280;9205;52.032;4.314;2023-05-18T03:20:40;102887.88;;;9.85
18161;BMP280;9205;52.032;4.314;2023-05-18T03:23:09;102887.81;;;9.82
18161;BMP280;9205;52.032;4.314;2023-05-18T03:25:37;102888.56;;;9.75
18161;BMP280;9205;52.032;4.314;2023-05-18T03:28:05;102895.28;;;9.71
18161;BMP280;9205;52.032;4.314;2023-05-18T03:30:34;102891.94;;;9.72
18161;BMP280;9205;52.032;4.314;2023-05-18T03:33:02;102893.56;;;9.70
18161;BMP280;9205;52.032;4.314;2023-05-18T03:35:30;102890.16;;;9.68
18161;BMP280;9205;52.032;4.314;2023-05-18T03:37:58;102893.50;;;9.66
18161;BMP280;9205;52.032;4.314;2023-05-18T03:40:28;102892.75;;;9.73
18161;BMP280;9205;52.032;4.314;2023-05-18T03:42:55;102890.22;;;9.73
18161;BMP280;9205;52.032;4.314;2023-05-18T03:45:22;102885.94;;;9.69
18161;BMP280;9205;52.032;4.314;2023-05-18T03:47:50;102887.47;;;9.56
18161;BMP280;9205;52.032;4.314;2023-05-18T03:50:17;102894.13;;;9.50
18161;BMP280;9205;52.032;4.314;2023-05-18T03:52:46;102884.91;;;9.55
18161;BMP280;9205;52.032;4.314;2023-05-18T03:55:13;102887.44;;;9.55
18161;BMP280;9205;52.032;4.314;2023-05-18T03:57:42;102902.69;;;9.58
18161;BMP280;9205;52.032;4.314;2023-05-18T04:00:11;102902.69;;;9.55
18161;BMP280;9205;52.032;4.314;2023-05-18T04:02:43;102906.00;;;9.52
18161;BMP280;9205;52.032;4.314;2023-05-18T04:05:14;102894.28;;;9.60
18161;BMP280;9205;52.032;4.314;2023-05-18T04:07:41;102890.91;;;9.61
18161;BMP280;9205;52.032;4.314;2023-05-18T04:10:12;102896.91;;;9.66
18161;BMP280;9205;52.032;4.314;2023-05-18T04:12:43;102896.13;;;9.70
18161;BMP280;9205;52.032;4.314;2023-05-18T04:15:11;102898.72;;;9.75
18161;BMP280;9205;52.032;4.314;2023-05-18T04:17:39;102899.63;;;9.80
18161;BMP280;9205;52.032;4.314;2023-05-18T04:20:11;102897.97;;;9.83
18161;BMP280;9205;52.032;4.314;2023-05-18T04:22:41;102903.03;;;9.79
18161;BMP280;9205;52.032;4.314;2023-05-18T04:25:11;102903.06;;;9.82
18161;BMP280;9205;52.032;4.314;2023-05-18T04:27:39;102900.63;;;9.89
18161;BMP280;9205;52.032;4.314;2023-05-18T04:30:11;102899.81;;;9.92
18161;BMP280;9205;52.032;4.314;2023-05-18T04:32:40;102900.63;;;9.91
18161;BMP280;9205;52.032;4.314;2023-05-18T04:35:09;102902.28;;;9.86
18161;BMP280;9205;52.032;4.314;2023-05-18T04:37:38;102904.84;;;9.89
18161;BMP280;9205;52.032;4.314;2023-05-18T04:40:09;102908.31;;;9.94
18161;BMP280;9205;52.032;4.314;2023-05-18T04:42:38;102910.00;;;9.95
18161;BMP280;9205;52.032;4.314;2023-05-18T04:45:13;102921.94;;;9.99
18161;BMP280;9205;52.032;4.314;2023-05-18T04:47:43;102917.69;;;9.99
18161;BMP280;9205;52.032;4.314;2023-05-18T04:50:15;102925.31;;;9.98
18161;BMP280;9205;52.032;4.314;2023-05-18T04:52:45;102927.09;;;10.05
18161;BMP280;9205;52.032;4.314;2023-05-18T04:55:17;102927.97;;;10.05
18161;BMP280;9205;52.032;4.314;2023-05-18T04:57:52;102929.69;;;10.09
18161;BMP280;9205;52.032;4.314;2023-05-18T05:00:23;102927.22;;;10.15
18161;BMP280;9205;52.032;4.314;2023-05-18T05:02:51;102929.78;;;10.15
18161;BMP280;9205;52.032;4.314;2023-05-18T05:05:18;102939.03;;;10.12
18161;BMP280;9205;52.032;4.314;2023-05-18T05:07:47;102936.69;;;10.23
18161;BMP280;9205;52.032;4.314;2023-05-18T05:10:15;102935.91;;;10.30
18161;BMP280;9205;52.032;4.314;2023-05-18T05:12:42;102931.72;;;10.32
18161;BMP280;9205;52.032;4.314;2023-05-18T05:15:10;102934.25;;;10.32
18161;BMP280;9205;52.032;4.314;2023-05-18T05:17:39;102935.94;;;10.33
18161;BMP280;9205;52.032;4.314;2023-05-18T05:20:08;102930.03;;;10.34
18161;BMP280;9205;52.032;4.314;2023-05-18T05:22:36;102932.59;;;10.37
18161;BMP280;9205;52.032;4.314;2023-05-18T05:25:06;102922.56;;;10.46
18161;BMP280;9205;52.032;4.314;2023-05-18T05:27:34;102928.53;;;10.48
18161;BMP280;9205;52.032;4.314;2023-05-18T05:30:02;102929.31;;;10.44
18161;BMP280;9205;52.032;4.314;2023-05-18T05:32:32;102931.03;;;10.47
18161;BMP280;9205;52.032;4.314;2023-05-18T05:35:02;102930.97;;;10.42
18161;BMP280;9205;52.032;4.314;2023-05-18T05:37:30;102920.78;;;10.41
18161;BMP280;9205;52.032;4.314;2023-05-18T05:39:58;102927.56;;;10.40
18161;BMP280;9205;52.032;4.314;2023-05-18T05:42:25;102929.34;;;10.47
18161;BMP280;9205;52.032;4.314;2023-05-18T05:44:54;102926.00;;;10.53
18161;BMP280;9205;52.032;4.314;2023-05-18T05:47:23;102934.56;;;10.61
18161;BMP280;9205;52.032;4.314;2023-05-18T05:49:50;102936.22;;;10.57
18161;BMP280;9205;52.032;4.314;2023-05-18T05:52:18;102931.13;;;10.57
18161;BMP280;9205;52.032;4.314;2023-05-18T05:54:46;102939.53;;;10.50
18161;BMP280;9205;52.032;4.314;2023-05-18T05:57:14;102942.13;;;10.55
18161;BMP280;9205;52.032;4.314;2023-05-18T05:59:41;102943.94;;;10.65
18161;BMP280;9205;52.032;4.314;2023-05-18T06:02:09;102949.88;;;10.65
18161;BMP280;9205;52.032;4.314;2023-05-18T06:04:37;102949.97;;;10.71
18161;BMP280;9205;52.032;4.314;2023-05-18T06:07:05;102946.59;;;10.75
18161;BMP280;9205;52.032;4.314;2023-05-18T06:09:34;102948.38;;;10.84
18161;BMP280;9205;52.032;4.314;2023-05-18T06:12:01;102954.38;;;10.91
18161;BMP280;9205;52.032;4.314;2023-05-18T06:14:28;102947.59;;;10.88
18161;BMP280;9205;52.032;4.314;2023-05-18T06:16:57;102945.03;;;10.86
18161;BMP280;9205;52.032;4.314;2023-05-18T06:19:24;102953.59;;;10.95
18161;BMP280;9205;52.032;4.314;2023-05-18T06:21:52;102957.91;;;11.02
18161;BMP280;9205;52.032;4.314;2023-05-18T06:24:19;102959.63;;;11.06
18161;BMP280;9205;52.032;4.314;2023-05-18T06:27:07;102959.66;;;11.08
18161;BMP280;9205;52.032;4.314;2023-05-18T06:29:58;102967.34;;;11.14
18161;BMP280;9205;52.032;4.314;2023-05-18T06:32:39;102970.81;;;11.20
18161;BMP280;9205;52.032;4.314;2023-05-18T06:35:07;102959.88;;;11.32
18161;BMP280;9205;52.032;4.314;2023-05-18T06:37:35;102961.50;;;11.25
18161;BMP280;9205;52.032;4.314;2023-05-18T06:40:02;102969.19;;;11.30
18161;BMP280;9205;52.032;4.314;2023-05-18T06:42:33;102962.44;;;11.35
18161;BMP280;9205;52.032;4.314;2023-05-18T06:45:21;102963.28;;;11.32
18161;BMP280;9205;52.032;4.314;2023-05-18T06:47:52;102970.91;;;11.31
18161;BMP280;9205;52.032;4.314;2023-05-18T06:50:19;102970.84;;;11.28
18161;BMP280;9205;52.032;4.314;2023-05-18T06:52:47;102967.47;;;11.29
18161;BMP280;9205;52.032;4.314;2023-05-18T06:55:15;102962.44;;;11.33
18161;BMP280;9205;52.032;4.314;2023-05-18T06:57:44;102959.09;;;11.40
18161;BMP280;9205;52.032;4.314;2023-05-18T07:00:12;102972.72;;;11.47
18161;BMP280;9205;52.032;4.314;2023-05-18T07:02:40;102968.47;;;11.49
18161;BMP280;9205;52.032;4.314;2023-05-18T07:05:09;102956.69;;;11.52
18161;BMP280;9205;52.032;4.314;2023-05-18T07:07:36;102966.09;;;11.61
18161;BMP280;9205;52.032;4.314;2023-05-18T07:10:05;102958.47;;;11.64
18161;BMP280;9205;52.032;4.314;2023-05-18T07:12:32;102964.41;;;11.63
18161;BMP280;9205;52.032;4.314;2023-05-18T07:15:01;102965.25;;;11.62
18161;BMP280;9205;52.032;4.314;2023-05-18T07:17:29;102967.03;;;11.73
18161;BMP280;9205;52.032;4.314;2023-05-18T07:19:56;102968.72;;;11.77
18161;BMP280;9205;52.032;4.314;2023-05-18T07:22:24;102968.72;;;11.77
18161;BMP280;9205;52.032;4.314;2023-05-18T07:24:51;102965.41;;;11.87
18161;BMP280;9205;52.032;4.314;2023-05-18T07:27:18;102965.41;;;11.88
18161;BMP280;9205;52.032;4.314;2023-05-18T07:29:45;102964.66;;;12.01
18161;BMP280;9205;52.032;4.314;2023-05-18T07:32:14;102962.94;;;12.03
18161;BMP280;9205;52.032;4.314;2023-05-18T07:34:41;102971.50;;;12.08
18161;BMP280;9205;52.032;4.314;2023-05-18T07:37:11;102973.19;;;12.06
18161;BMP280;9205;52.032;4.314;2023-05-18T07:39:38;102974.03;;;12.04
18161;BMP280;9205;52.032;4.314;2023-05-18T07:42:13;102970.63;;;12.08
18161;BMP280;9205;52.032;4.314;2023-05-18T07:44:41;102974.03;;;12.11
18161;BMP280;9205;52.032;4.314;2023-05-18T07:47:08;102972.38;;;12.12
18161;BMP280;9205;52.032;4.314;2023-05-18T07:49:37;102971.53;;;12.16
18161;BMP280;9205;52.032;4.314;2023-05-18T07:52:06;102979.16;;;12.14
18161;BMP280;9205;52.032;4.314;2023-05-18T07:54:33;102981.69;;;12.08
18161;BMP280;9205;52.032;4.314;2023-05-18T07:57:01;102973.19;;;12.06
18161;BMP280;9205;52.032;4.314;2023-05-18T07:59:29;102979.94;;;12.01
18161;BMP280;9205;52.032;4.314;2023-05-18T08:01:56;102980.88;;;12.15
18161;BMP280;9205;52.032;4.314;2023-05-18T08:04:24;102984.25;;;12.11
18161;BMP280;9205;52.032;4.314;2023-05-18T08:06:53;102979.19;;;12.20
18161;BMP280;9205;52.032;4.314;2023-05-18T08:09:21;102973.25;;;12.20
18161;BMP280;9205;52.032;4.314;2023-05-18T08:11:48;102968.22;;;12.30
18161;BMP280;9205;52.032;4.314;2023-05-18T08:14:17;102972.47;;;12.33
18161;BMP280;9205;52.032;4.314;2023-05-18T08:16:44;102988.66;;;12.42
18161;BMP280;9205;52.032;4.314;2023-05-18T08:19:11;102974.19;;;12.38
18161;BMP280;9205;52.032;4.314;2023-05-18T08:21:39;102973.31;;;12.30
18161;BMP280;9205;52.032;4.314;2023-05-18T08:24:08;102975.91;;;12.45
18161;BMP280;9205;52.032;4.314;2023-05-18T08:26:36;102959.81;;;12.55
18161;BMP280;9205;52.032;4.314;2023-05-18T08:29:03;102966.66;;;12.66
18161;BMP280;9205;52.032;4.314;2023-05-18T08:31:35;102964.09;;;12.62
18161;BMP280;9205;52.032;4.314;2023-05-18T08:34:03;102970.06;;;12.70
18161;BMP280;9205;52.032;4.314;2023-05-18T08:36:32;102968.38;;;12.76
18161;BMP280;9205;52.032;4.314;2023-05-18T08:38:59;102974.41;;;12.96
18161;BMP280;9205;52.032;4.314;2023-05-18T08:41:35;102968.47;;;13.02
18161;BMP280;9205;52.032;4.314;2023-05-18T08:44:08;102965.91;;;12.93
18161;BMP280;9205;52.032;4.314;2023-05-18T08:46:40;102966.75;;;12.92
18161;BMP280;9205;52.032;4.314;2023-05-18T08:49:09;102966.72;;;12.87
18161;BMP280;9205;52.032;4.314;2023-05-18T08:51:37;102965.84;;;12.84
18161;BMP280;9205;52.032;4.314;2023-05-18T08:54:04;102966.72;;;12.89
18161;BMP280;9205;52.032;4.314;2023-05-18T08:56:34;102973.50;;;12.85
18161;BMP280;9205;52.032;4.314;2023-05-18T08:59:04;102970.09;;;12.82
18161;BMP280;9205;52.032;4.314;2023-05-18T09:01:33;102969.25;;;12.83
18161;BMP280;9205;52.032;4.314;2023-05-18T09:04:01;102965.84;;;12.79
18161;BMP280;9205;52.032;4.314;2023-05-18T09:06:34;102958.19;;;12.78
18161;BMP280;9205;52.032;4.314;2023-05-18T09:09:09;102951.38;;;12.83
18161;BMP280;9205;52.032;4.314;2023-05-18T09:11:39;102953.94;;;12.75
18161;BMP280;9205;52.032;4.314;2023-05-18T09:14:27;102950.50;;;12.75
18161;BMP280;9205;52.032;4.314;2023-05-18T09:16:57;102949.69;;;12.85
18161;BMP280;9205;52.032;4.314;2023-05-18T09:19:24;102950.59;;;12.93
18161;BMP280;9205;52.032;4.314;2023-05-18T09:21:53;102938.69;;;13.01
18161;BMP280;9205;52.032;4.314;2023-05-18T09:24:20;102941.22;;;12.99
18161;BMP280;9205;52.032;4.314;2023-05-18T09:26:49;102944.66;;;13.04
18161;BMP280;9205;52.032;4.314;2023-05-18T09:29:18;102933.59;;;13.08
18161;BMP280;9205;52.032;4.314;2023-05-18T09:31:47;102933.63;;;13.10
18161;BMP280;9205;52.032;4.314;2023-05-18T09:34:15;102929.34;;;13.21
18161;BMP280;9205;52.032;4.314;2023-05-18T09:36:46;102932.75;;;13.14
18161;BMP280;9205;52.032;4.314;2023-05-18T09:39:18;102932.75;;;13.24
18161;BMP280;9205;52.032;4.314;2023-05-18T09:41:45;102931.03;;;13.23
18161;BMP280;9205;52.032;4.314;2023-05-18T09:44:14;102925.97;;;13.25
18161;BMP280;9205;52.032;4.314;2023-05-18T09:46:42;102931.91;;;13.25
18161;BMP280;9205;52.032;4.314;2023-05-18T09:49:09;102935.31;;;13.37
18161;BMP280;9205;52.032;4.314;2023-05-18T09:51:38;102931.91;;;13.40
18161;BMP280;9205;52.032;4.314;2023-05-18T09:54:07;102939.56;;;13.53
18161;BMP280;9205;52.032;4.314;2023-05-18T09:56:36;102943.81;;;13.60
18161;BMP280;9205;52.032;4.314;2023-05-18T09:59:13;102940.38;;;13.58
18161;BMP280;9205;52.032;4.314;2023-05-18T10:01:56;102943.78;;;13.57
18161;BMP280;9205;52.032;4.314;2023-05-18T10:04:36;102934.44;;;13.68
18161;BMP280;9205;52.032;4.314;2023-05-18T10:07:09;102932.72;;;13.76
18161;BMP280;9205;52.032;4.314;2023-05-18T10:09:39;102932.69;;;13.87
18161;BMP280;9205;52.032;4.314;2023-05-18T10:12:11;102936.09;;;13.87
18161;BMP280;9205;52.032;4.314;2023-05-18T10:14:42;102936.97;;;13.82
18161;BMP280;9205;52.032;4.314;2023-05-18T10:17:11;102932.66;;;13.93
18161;BMP280;9205;52.032;4.314;2023-05-18T10:19:40;102933.50;;;13.99
18161;BMP280;9205;52.032;4.314;2023-05-18T10:22:09;102926.72;;;13.92
18161;BMP280;9205;52.032;4.314;2023-05-18T10:24:41;102926.72;;;13.91
18161;BMP280;9205;52.032;4.314;2023-05-18T10:27:10;102922.44;;;13.97
18161;BMP280;9205;52.032;4.314;2023-05-18T10:29:43;102913.91;;;14.01
18161;BMP280;9205;52.032;4.314;2023-05-18T10:32:12;102914.75;;;13.97
18161;BMP280;9205;52.032;4.314;2023-05-18T10:34:41;102917.28;;;14.06
18161;BMP280;9205;52.032;4.314;2023-05-18T10:37:12;102913.88;;;14.16
18161;BMP280;9205;52.032;4.314;2023-05-18T10:39:43;102924.03;;;14.32
18161;BMP280;9205;52.032;4.314;2023-05-18T10:42:12;102911.28;;;14.26
18161;BMP280;9205;52.032;4.314;2023-05-18T10:44:45;102906.03;;;14.52
18161;BMP280;9205;52.032;4.314;2023-05-18T10:47:14;102906.94;;;14.42
18161;BMP280;9205;52.032;4.314;2023-05-18T10:49:42;102912.81;;;14.62
18161;BMP280;9205;52.032;4.314;2023-05-18T10:52:12;102907.63;;;14.72
18161;BMP280;9205;52.032;4.314;2023-05-18T10:54:44;102897.13;;;15.09
18161;BMP280;9205;52.032;4.314;2023-05-18T10:57:17;102896.13;;;16.08
18161;BMP280;9205;52.032;4.314;2023-05-18T10:59:47;102889.56;;;16.53
18161;BMP280;9205;52.032;4.314;2023-05-18T11:02:17;102877.44;;;17.16
18161;BMP280;9205;52.032;4.314;2023-05-18T11:04:46;102875.13;;;17.52
18161;BMP280;9205;52.032;4.314;2023-05-18T11:07:14;102878.00;;;17.81
18161;BMP280;9205;52.032;4.314;2023-05-18T11:09:43;102878.97;;;17.74
18161;BMP280;9205;52.032;4.314;2023-05-18T11:12:12;102878.28;;;17.66
18161;BMP280;9205;52.032;4.314;2023-05-18T11:14:50;102883.69;;;17.52
18161;BMP280;9205;52.032;4.314;2023-05-18T11:17:21;102873.28;;;17.09
18161;BMP280;9205;52.032;4.314;2023-05-18T11:20:12;102882.47;;;16.70
18161;BMP280;9205;52.032;4.314;2023-05-18T11:22:44;102882.78;;;16.49
18161;BMP280;9205;52.032;4.314;2023-05-18T11:25:38;102876.94;;;16.39
18161;BMP280;9205;52.032;4.314;2023-05-18T11:28:08;102881.38;;;16.29
18161;BMP280;9205;52.032;4.314;2023-05-18T11:30:49;102873.31;;;15.87
18161;BMP280;9205;52.032;4.314;2023-05-18T11:33:23;102876.91;;;15.71
18161;BMP280;9205;52.032;4.314;2023-05-18T11:36:03;102882.06;;;15.68
18161;BMP280;9205;52.032;4.314;2023-05-18T11:38:47;102873.66;;;15.57
18161;BMP280;9205;52.032;4.314;2023-05-18T11:41:31;102871.00;;;15.65
18161;BMP280;9205;52.032;4.314;2023-05-18T11:44:04;102856.34;;;15.77
18161;BMP280;9205;52.032;4.314;2023-05-18T11:46:37;102853.53;;;15.99
18161;BMP280;9205;52.032;4.314;2023-05-18T11:49:06;102845.59;;;16.16
18161;BMP280;9205;52.032;4.314;2023-05-18T11:52:02;102855.84;;;16.19
18161;BMP280;9205;52.032;4.314;2023-05-18T11:54:38;102847.22;;;16.23
18161;BMP280;9205;52.032;4.314;2023-05-18T11:57:16;102856.53;;;16.33
18161;BMP280;9205;52.032;4.314;2023-05-18T11:59:46;102851.41;;;16.30
18161;BMP280;9205;52.032;4.314;2023-05-18T12:02:23;102851.59;;;16.15
18161;BMP280;9205;52.032;4.314;2023-05-18T12:04:53;102842.31;;;16.06
18161;BMP280;9205;52.032;4.314;2023-05-18T12:07:22;102844.97;;;15.96
18161;BMP280;9205;52.032;4.314;2023-05-18T12:09:50;102840.59;;;16.07
18161;BMP280;9205;52.032;4.314;2023-05-18T12:12:18;102840.44;;;16.19
18161;BMP280;9205;52.032;4.314;2023-05-18T12:14:52;102841.06;;;16.37
18161;BMP280;9205;52.032;4.314;2023-05-18T12:17:23;102836.50;;;16.54
18161;BMP280;9205;52.032;4.314;2023-05-18T12:19:55;102834.72;;;16.60
18161;BMP280;9205;52.032;4.314;2023-05-18T12:22:25;102838.75;;;16.76
18161;BMP280;9205;52.032;4.314;2023-05-18T12:24:53;102828.13;;;16.97
18161;BMP280;9205;52.032;4.314;2023-05-18T12:27:24;102828.84;;;17.05
18161;BMP280;9205;52.032;4.314;2023-05-18T12:29:53;102827.75;;;17.18
18161;BMP280;9205;52.032;4.314;2023-05-18T12:32:28;102821.97;;;17.07
18161;BMP280;9205;52.032;4.314;2023-05-18T12:34:56;102826.34;;;17.01
18161;BMP280;9205;52.032;4.314;2023-05-18T12:37:23;102831.88;;;17.28
18161;BMP280;9205;52.032;4.314;2023-05-18T12:39:51;102820.06;;;17.18
18161;BMP280;9205;52.032;4.314;2023-05-18T12:42:20;102825.00;;;17.30
18161;BMP280;9205;52.032;4.314;2023-05-18T12:44:47;102817.41;;;17.21
18161;BMP280;9205;52.032;4.314;2023-05-18T12:47:15;102827.69;;;17.23
18161;BMP280;9205;52.032;4.314;2023-05-18T12:49:48;102832.38;;;17.46
18161;BMP280;9205;52.032;4.314;2023-05-18T12:52:16;102824.66;;;17.48
18161;BMP280;9205;52.032;4.314;2023-05-18T12:54:51;102825.38;;;17.54
18161;BMP280;9205;52.032;4.314;2023-05-18T12:57:25;102817.19;;;17.78
18161;BMP280;9205;52.032;4.314;2023-05-18T12:59:56;102824.72;;;17.87
18161;BMP280;9205;52.032;4.314;2023-05-18T13:02:31;102816.09;;;17.90
18161;BMP280;9205;52.032;4.314;2023-05-18T13:05:06;102815.06;;;17.97
18161;BMP280;9205;52.032;4.314;2023-05-18T13:07:36;102806.84;;;18.20
18161;BMP280;9205;52.032;4.314;2023-05-18T13:10:05;102797.84;;;18.39
18161;BMP280;9205;52.032;4.314;2023-05-18T13:12:44;102803.88;;;18.38
18161;BMP280;9205;52.032;4.314;2023-05-18T13:15:17;102803.66;;;18.47
18161;BMP280;9205;52.032;4.314;2023-05-18T13:17:55;102792.97;;;18.64
18161;BMP280;9205;52.032;4.314;2023-05-18T13:20:31;102796.41;;;18.63
18161;BMP280;9205;52.032;4.314;2023-05-18T13:23:04;102805.47;;;18.79
18161;BMP280;9205;52.032;4.314;2023-05-18T13:25:32;102788.56;;;18.69
18161;BMP280;9205;52.032;4.314;2023-05-18T13:28:00;102787.66;;;18.70
18161;BMP280;9205;52.032;4.314;2023-05-18T13:30:27;102794.22;;;18.81
18161;BMP280;9205;52.032;4.314;2023-05-18T13:32:56;102782.56;;;18.68
18161;BMP280;9205;52.032;4.314;2023-05-18T13:35:25;102791.25;;;18.64
18161;BMP280;9205;52.032;4.314;2023-05-18T13:37:53;102790.66;;;18.53
18161;BMP280;9205;52.032;4.314;2023-05-18T13:40:21;102791.25;;;18.64
18161;BMP280;9205;52.032;4.314;2023-05-18T13:42:50;102784.13;;;18.40
18161;BMP280;9205;52.032;4.314;2023-05-18T13:45:18;102775.09;;;18.58
18161;BMP280;9205;52.032;4.314;2023-05-18T13:47:46;102782.22;;;18.82
18161;BMP280;9205;52.032;4.314;2023-05-18T13:50:16;102772.34;;;18.98
18161;BMP280;9205;52.032;4.314;2023-05-18T13:52:45;102782.66;;;18.97
18161;BMP280;9205;52.032;4.314;2023-05-18T13:55:13;102771.97;;;19.12
18161;BMP280;9205;52.032;4.314;2023-05-18T13:57:40;102774.69;;;19.07
18161;BMP280;9205;52.032;4.314;2023-05-18T14:00:09;102763.47;;;19.10
18161;BMP280;9205;52.032;4.314;2023-05-18T14:02:38;102765.81;;;19.19
18161;BMP280;9205;52.032;4.314;2023-05-18T14:05:06;102760.56;;;19.22
18161;BMP280;9205;52.032;4.314;2023-05-18T14:07:34;102763.94;;;19.24
18161;BMP280;9205;52.032;4.314;2023-05-18T14:10:04;102760.22;;;19.34
18161;BMP280;9205;52.032;4.314;2023-05-18T14:12:32;102751.69;;;19.32
18161;BMP280;9205;52.032;4.314;2023-05-18T14:14:59;102753.13;;;19.42
18161;BMP280;9205;52.032;4.314;2023-05-18T14:17:27;102756.34;;;19.50
18161;BMP280;9205;52.032;4.314;2023-05-18T14:19:55;102763.44;;;19.42
18161;BMP280;9205;52.032;4.314;2023-05-18T14:22:23;102748.09;;;19.37
18161;BMP280;9205;52.032;4.314;2023-05-18T14:24:52;102752.50;;;19.34
18161;BMP280;9205;52.032;4.314;2023-05-18T14:27:21;102753.13;;;19.42
18161;BMP280;9205;52.032;4.314;2023-05-18T14:29:49;102748.31;;;19.30